Time;durP1;ratioP1;P1;durP2;ratioP2;P2;SDS_P1;SDS_P2;PMS_P1;PMS_P2;Temp;Humidity;BMP_temperature;BMP_pressure;BME280_temperature;BME280_humidity;BME280_pressure;Samples;Min_cycle;Max_cycle;Signal;HPM_P1;HPM_P2
2022/10/04 00:01:52;;;;;;;1.92;1.07;;;;;;;10.51;77.13;98201.89;1730079;81;21024;-70
2022/10/04 00:04:33;;;;;;;1.30;1.20;;;;;;;10.51;77.10;98211.19;1733088;81;21842;-70
2022/10/04 00:07:17;;;;;;;2.95;1.30;;;;;;;10.49;77.05;98218.05;1743341;81;21123;-70
2022/10/04 00:09:56;;;;;;;1.10;1.00;;;;;;;10.48;77.01;98207.63;1737212;81;21563;-70
2022/10/04 00:12:46;;;;;;;0.93;0.93;;;;;;;10.47;77.05;98212.13;1731229;82;20949;-71
2022/10/04 00:15:23;;;;;;;1.65;1.15;;;;;;;10.46;77.11;98210.97;1731042;81;20963;-71
2022/10/04 00:18:13;;;;;;;1.85;1.00;;;;;;;10.48;77.10;98211.62;1742574;81;22163;-71
2022/10/04 00:20:55;;;;;;;1.80;1.10;;;;;;;10.48;77.07;98210.29;1736743;81;21001;-70
2022/10/04 00:23:28;;;;;;;1.90;1.10;;;;;;;10.48;76.98;98208.96;1737078;81;20866;-70
2022/10/04 00:26:00;;;;;;;1.60;1.22;;;;;;;10.49;76.81;98221.22;1749458;81;20901;-70
2022/10/04 00:28:42;;;;;;;2.55;1.87;;;;;;;10.47;76.77;98214.78;1738160;81;20937;-70
2022/10/04 00:31:16;;;;;;;4.97;1.12;;;;;;;10.48;76.79;98216.94;1737810;81;21160;-70
2022/10/04 00:33:47;;;;;;;2.00;1.20;;;;;;;10.49;76.63;98211.91;1743215;81;20975;-70
2022/10/04 00:36:31;;;;;;;1.82;1.20;;;;;;;10.51;76.51;98225.81;1733937;81;20946;-70
2022/10/04 00:39:06;;;;;;;1.57;1.20;;;;;;;10.52;76.31;98228.30;1744562;81;20906;-69
2022/10/04 00:41:50;;;;;;;1.45;1.10;;;;;;;10.52;76.02;98218.16;1705584;82;21056;-70
2022/10/04 00:44:30;;;;;;;2.62;1.10;;;;;;;10.52;75.91;98224.81;1666803;84;21185;-69
2022/10/04 00:46:57;;;;;;;4.92;1.50;;;;;;;10.51;75.86;98220.00;1680028;84;20962;-69
2022/10/04 00:49:28;;;;;;;2.30;1.10;;;;;;;10.50;75.92;98230.34;1691480;83;21465;-69
2022/10/04 00:52:14;;;;;;;1.02;0.98;;;;;;;10.50;75.98;98221.54;1713940;83;20963;-69
2022/10/04 00:54:44;;;;;;;4.78;1.10;;;;;;;10.50;76.06;98227.68;1691446;83;21052;-70
2022/10/04 00:57:20;;;;;;;1.95;0.90;;;;;;;10.52;75.99;98242.09;1691366;83;21112;-70
2022/10/04 00:59:52;;;;;;;1.65;1.00;;;;;;;10.51;75.96;98239.11;1689068;83;21005;-70
2022/10/04 01:02:38;;;;;;;1.57;1.20;;;;;;;10.51;75.96;98241.77;1688879;83;20863;-70
2022/10/04 01:05:15;;;;;;;1.37;1.20;;;;;;;10.52;75.97;98246.91;1681903;83;21541;-71
2022/10/04 01:07:50;;;;;;;1.40;1.30;;;;;;;10.53;75.96;98250.39;1691923;83;21108;-69
2022/10/04 01:10:32;;;;;;;2.08;1.20;;;;;;;10.52;75.96;98248.23;1689676;83;21924;-70
2022/10/04 01:13:21;;;;;;;1.02;0.93;;;;;;;10.53;75.95;98245.88;1710991;83;21481;-69
2022/10/04 01:16:06;;;;;;;2.90;1.35;;;;;;;10.53;75.76;98243.75;1691019;83;20950;-70
2022/10/04 01:18:33;;;;;;;2.10;1.15;;;;;;;10.53;75.82;98258.38;1708150;82;20996;-70
2022/10/04 01:21:25;;;;;;;1.70;1.12;;;;;;;10.51;75.86;98258.55;1671099;84;20931;-70
2022/10/04 01:24:01;;;;;;;1.00;0.90;;;;;;;10.51;75.89;98265.20;1671767;84;21205;-71
2022/10/04 01:26:35;;;;;;;1.52;0.90;;;;;;;10.50;75.90;98266.74;1686151;83;21450;-70
2022/10/04 01:29:21;;;;;;;1.57;0.95;;;;;;;10.51;75.87;98271.02;1714382;82;21376;-71
2022/10/04 01:31:49;;;;;;;2.55;1.10;;;;;;;10.54;75.86;98277.28;1686312;83;20976;-71
2022/10/04 01:34:21;;;;;;;1.20;1.10;;;;;;;10.53;75.74;98276.45;1690596;83;20958;-70
2022/10/04 01:36:50;;;;;;;6.53;2.58;;;;;;;10.54;75.76;98281.27;1691201;83;21156;-70
2022/10/04 01:39:18;;;;;;;0.90;0.90;;;;;;;10.56;75.89;98278.42;1703264;83;20994;-70
2022/10/04 01:41:59;;;;;;;1.70;1.30;;;;;;;10.55;75.91;98285.58;1694323;83;20983;-70
2022/10/04 01:44:49;;;;;;;3.77;1.12;;;;;;;10.54;75.80;98283.92;1717356;82;21516;-70
2022/10/04 01:47:37;;;;;;;1.62;1.02;;;;;;;10.55;75.77;98288.23;1719376;82;20974;-69
2022/10/04 01:50:18;;;;;;;2.33;1.20;;;;;;;10.55;75.65;98292.23;1717806;83;21156;-70
2022/10/04 01:52:51;;;;;;;3.52;1.15;;;;;;;10.54;75.68;98289.24;1712780;82;20962;-70
2022/10/04 01:55:28;;;;;;;1.20;1.10;;;;;;;10.55;75.60;98294.88;1719459;82;20954;-69
2022/10/04 01:58:02;;;;;;;2.75;1.20;;;;;;;10.54;75.56;98294.05;1718832;82;20993;-72
2022/10/04 02:00:31;;;;;;;3.52;1.50;;;;;;;10.54;75.52;98299.38;1704530;83;20895;-73
2022/10/04 02:03:03;;;;;;;1.60;1.20;;;;;;;10.55;75.34;98304.19;1719202;83;21163;-74
2022/10/04 02:05:35;;;;;;;1.90;1.30;;;;;;;10.53;75.35;98305.70;1717682;82;20943;-70
2022/10/04 02:08:04;;;;;;;3.75;1.12;;;;;;;10.55;75.40;98305.52;1719379;82;20971;-71
2022/10/04 02:10:32;;;;;;;1.72;1.05;;;;;;;10.55;75.37;98304.19;1719426;83;21434;-69
2022/10/04 02:12:59;;;;;;;2.37;1.57;;;;;;;10.55;75.40;98313.50;1719270;83;20910;-70
2022/10/04 02:15:27;;;;;;;2.22;1.40;;;;;;;10.53;75.42;98308.36;1719313;82;21262;-72
2022/10/04 02:17:54;;;;;;;5.50;1.25;;;;;;;10.52;75.35;98310.73;1719163;83;20990;-71
2022/10/04 02:20:23;;;;;;;1.17;0.98;;;;;;;10.52;75.34;98316.55;1719394;83;20902;-70
2022/10/04 02:22:53;;;;;;;2.42;1.47;;;;;;;10.53;75.37;98315.55;1719380;82;20887;-69
2022/10/04 02:25:20;;;;;;;1.60;1.22;;;;;;;10.52;75.41;98317.37;1728479;82;21003;-70
2022/10/04 02:27:52;;;;;;;1.27;1.17;;;;;;;10.51;75.44;98314.39;1714343;82;21150;-70
2022/10/04 02:30:19;;;;;;;1.52;1.42;;;;;;;10.51;75.43;98313.56;1706553;83;21005;-70
2022/10/04 02:32:59;;;;;;;1.47;1.27;;;;;;;10.51;75.43;98317.55;1719400;82;20958;-70
2022/10/04 02:35:35;;;;;;;1.10;1.00;;;;;;;10.50;75.45;98318.09;1719325;83;21524;-70
2022/10/04 02:38:21;;;;;;;6.03;1.10;;;;;;;10.50;75.42;98318.59;1719365;83;21028;-69
2022/10/04 02:41:11;;;;;;;1.57;1.47;;;;;;;10.49;75.44;98318.27;1720167;82;21323;-70
2022/10/04 02:43:50;;;;;;;2.42;1.40;;;;;;;10.48;75.52;98323.30;1724447;81;20922;-70
2022/10/04 02:46:30;;;;;;;2.75;1.50;;;;;;;10.47;75.67;98334.94;1705591;83;21006;-71
2022/10/04 02:49:00;;;;;;;3.67;1.32;;;;;;;10.45;75.65;98338.31;1727036;82;20898;-70
2022/10/04 02:51:46;;;;;;;2.87;1.32;;;;;;;10.44;75.68;98328.67;1706803;83;20899;-70
2022/10/04 02:54:37;;;;;;;1.42;1.32;;;;;;;10.42;75.62;98336.03;1734749;81;21124;-70
2022/10/04 02:57:03;;;;;;;1.30;1.07;;;;;;;10.38;75.62;98336.09;1723702;81;21008;-70
2022/10/04 02:59:30;;;;;;;1.37;1.10;;;;;;;10.35;75.70;98339.17;1724642;83;20926;-70
2022/10/04 03:01:59;;;;;;;3.35;1.40;;;;;;;10.34;75.84;98338.85;1724572;81;20954;-70
2022/10/04 03:04:33;;;;;;;1.82;1.30;;;;;;;10.34;75.95;98341.01;1724739;81;20990;-70
2022/10/04 03:07:01;;;;;;;2.42;1.50;;;;;;;10.35;75.93;98346.62;1724690;81;21096;-70
2022/10/04 03:09:28;;;;;;;1.82;1.20;;;;;;;10.34;75.87;98348.16;1724602;81;20962;-70
2022/10/04 03:11:55;;;;;;;2.00;1.30;;;;;;;10.35;75.91;98351.14;1724748;81;20943;-70
2022/10/04 03:14:24;;;;;;;2.58;1.60;;;;;;;10.35;75.87;98351.14;1724822;82;20902;-70
2022/10/04 03:16:53;;;;;;;1.47;1.30;;;;;;;10.35;75.91;98353.80;1724741;81;20946;-70
2022/10/04 03:19:24;;;;;;;2.10;1.92;;;;;;;10.34;75.86;98356.95;1714029;82;21172;-70
2022/10/04 03:21:52;;;;;;;10.58;1.92;;;;;;;10.35;75.93;98360.45;1724696;82;20898;-70
2022/10/04 03:24:31;;;;;;;3.15;1.25;;;;;;;10.37;75.95;98363.22;1724753;81;20942;-70
2022/10/04 03:27:02;;;;;;;1.70;1.50;;;;;;;10.37;75.95;98367.70;1724531;82;20974;-70
2022/10/04 03:29:30;;;;;;;2.30;1.55;;;;;;;10.39;75.96;98372.31;1724600;82;20938;-70
2022/10/04 03:31:57;;;;;;;3.20;1.75;;;;;;;10.38;75.84;98374.65;1724514;83;22087;-70
2022/10/04 03:34:36;;;;;;;3.58;1.67;;;;;;;10.38;75.75;98373.31;1704226;82;20902;-70
2022/10/04 03:37:09;;;;;;;3.33;1.70;;;;;;;10.34;75.68;98379.55;1724222;81;20942;-70
2022/10/04 03:39:44;;;;;;;4.28;2.10;;;;;;;10.33;75.71;98376.57;1722107;83;20966;-69
2022/10/04 03:42:17;;;;;;;2.12;1.70;;;;;;;10.30;75.71;98371.64;1726868;81;20890;-70
2022/10/04 03:44:47;;;;;;;3.42;2.08;;;;;;;10.27;75.75;98377.87;1725081;81;21139;-70
2022/10/04 03:47:23;;;;;;;2.37;1.60;;;;;;;10.29;75.79;98374.00;1724410;81;21056;-69
2022/10/04 03:49:49;;;;;;;;;;;;;;;10.32;75.83;98378.11;1726542;81;20941;-70
2022/10/04 03:52:25;;;;;;;2.75;1.62;;;;;;;10.33;75.82;98377.90;1724939;81;20072;-69
2022/10/04 03:54:54;;;;;;;2.98;1.77;;;;;;;10.36;75.79;98371.38;1724862;81;20895;-69
2022/10/04 03:57:20;;;;;;;2.62;1.80;;;;;;;10.35;75.80;98375.06;1724705;81;21196;-69
2022/10/04 03:59:46;;;;;;;2.95;1.90;;;;;;;10.38;75.85;98378.13;1724605;81;21503;-69
2022/10/04 04:02:18;;;;;;;2.72;1.75;;;;;;;10.39;75.81;98380.29;1724671;81;21009;-68
2022/10/04 04:05:03;;;;;;;2.08;1.85;;;;;;;10.37;75.83;98377.84;1724708;81;20961;-69
2022/10/04 04:07:46;;;;;;;4.83;1.72;;;;;;;10.35;75.80;98389.16;1724300;81;20898;-69
2022/10/04 04:10:30;;;;;;;4.67;3.12;;;;;;;10.36;75.88;98389.48;1724683;81;20910;-70
2022/10/04 04:13:04;;;;;;;2.17;1.87;;;;;;;10.37;75.86;98391.63;1724691;81;20946;-69
2022/10/04 04:15:32;;;;;;;3.70;2.58;;;;;;;10.36;75.85;98389.48;1724690;81;20918;-69
2022/10/04 04:18:05;;;;;;;2.55;1.80;;;;;;;10.35;75.90;98391.81;1724379;82;21003;-69
2022/10/04 04:20:36;;;;;;;1.40;1.30;;;;;;;10.37;75.97;98390.30;1724684;81;21028;-69
2022/10/04 04:23:20;;;;;;;2.08;1.87;;;;;;;10.38;75.98;98394.09;1724713;81;22905;-70
2022/10/04 04:25:50;;;;;;;2.98;1.92;;;;;;;10.37;75.93;98393.79;1724765;81;20938;-70
2022/10/04 04:28:30;;;;;;;1.80;1.40;;;;;;;10.35;75.90;98392.34;1724639;81;21001;-70
2022/10/04 04:31:03;;;;;;;4.08;2.05;;;;;;;10.35;75.94;98397.66;1724715;81;21495;-70
2022/10/04 04:33:34;;;;;;;4.42;2.30;;;;;;;10.33;76.01;98399.17;1724824;81;21457;-69
2022/10/04 04:36:05;;;;;;;2.40;2.02;;;;;;;10.33;76.11;98398.34;1724820;81;21154;-70
2022/10/04 04:38:34;;;;;;;2.40;2.20;;;;;;;10.34;76.21;98400.00;1724658;82;20902;-69
2022/10/04 04:41:09;;;;;;;2.75;2.30;;;;;;;10.35;76.19;98400.32;1724660;81;21100;-70
2022/10/04 04:43:35;;;;;;;7.10;2.45;;;;;;;10.37;76.28;98407.59;1724573;82;21052;-70
2022/10/04 04:46:01;;;;;;;4.25;2.08;;;;;;;10.39;76.27;98406.88;1724585;81;20898;-69
2022/10/04 04:48:28;;;;;;;3.52;2.60;;;;;;;10.38;76.20;98400.73;1724752;81;21264;-70
2022/10/04 04:50:56;;;;;;;2.70;2.47;;;;;;;10.41;76.28;98404.34;1724591;81;21531;-70
2022/10/04 04:53:26;;;;;;;2.72;2.40;;;;;;;10.44;76.36;98413.76;1724744;81;21017;-70
2022/10/04 04:56:03;;;;;;;5.22;2.85;;;;;;;10.46;76.42;98407.73;1724847;81;20965;-70
2022/10/04 04:58:36;;;;;;;3.75;2.70;;;;;;;10.46;76.44;98407.73;1724825;81;21088;-70
2022/10/04 05:01:25;;;;;;;6.00;2.98;;;;;;;10.49;76.47;98407.34;1724833;83;21781;-69
2022/10/04 05:04:11;;;;;;;3.58;2.67;;;;;;;10.50;76.57;98418.30;1724790;81;20930;-69
2022/10/04 05:07:03;;;;;;;3.90;2.80;;;;;;;10.52;76.43;98417.09;1724912;81;20989;-69
2022/10/04 05:09:37;;;;;;;2.70;2.47;;;;;;;10.53;76.47;98413.40;1723842;82;20918;-70
2022/10/04 05:12:12;;;;;;;3.10;2.80;;;;;;;10.58;76.58;98419.98;1701965;82;21565;-70
2022/10/04 05:14:48;;;;;;;2.90;2.58;;;;;;;10.61;76.71;98416.41;1724708;82;21116;-70
2022/10/04 05:17:21;;;;;;;4.17;2.75;;;;;;;10.66;76.64;98418.00;1724824;81;20965;-70
2022/10/04 05:19:48;;;;;;;3.83;2.90;;;;;;;10.73;76.69;98422.84;1724778;81;20957;-70
2022/10/04 05:22:19;;;;;;;4.37;3.00;;;;;;;10.84;76.68;98425.45;1725047;81;20949;-69
2022/10/04 05:24:48;;;;;;;4.25;2.87;;;;;;;10.93;76.60;98423.75;1724785;82;21480;-71
2022/10/04 05:27:33;;;;;;;3.10;2.80;;;;;;;11.03;76.40;98418.05;1724741;81;21520;-69
2022/10/04 05:30:28;;;;;;;9.68;3.15;;;;;;;11.13;76.19;98417.99;1725003;81;20895;-69
2022/10/04 05:33:02;;;;;;;5.87;3.22;;;;;;;11.27;76.12;98418.04;1704877;81;21210;-70
2022/10/04 05:35:29;;;;;;;2.70;2.50;;;;;;;11.39;75.64;98427.94;1724661;81;21021;-70
2022/10/04 05:38:04;;;;;;;2.90;2.60;;;;;;;11.51;75.15;98427.65;1721775;81;21498;-66
2022/10/04 05:40:55;;;;;;;3.37;2.90;;;;;;;11.56;74.59;98428.37;1714378;81;22161;-70
2022/10/04 05:43:39;;;;;;;3.35;2.95;;;;;;;11.64;74.37;98425.02;1705690;81;21061;-69
2022/10/04 05:46:31;;;;;;;3.55;3.20;;;;;;;11.74;74.04;98429.97;1697032;83;21504;-69
2022/10/04 05:49:09;;;;;;;3.10;2.80;;;;;;;11.83;73.69;98435.43;1738286;81;21016;-69
2022/10/04 05:51:53;;;;;;;3.10;2.80;;;;;;;11.89;73.45;98431.93;1731328;81;21052;-69
2022/10/04 05:54:22;;;;;;;3.95;2.72;;;;;;;11.96;73.29;98438.61;1718902;83;21487;-69
2022/10/04 05:57:07;;;;;;;3.52;3.22;;;;;;;12.02;72.90;98443.94;1725197;81;21069;-69
2022/10/04 05:59:58;;;;;;;5.03;2.85;;;;;;;12.06;72.40;98446.52;1726280;81;21002;-70
2022/10/04 06:02:38;;;;;;;3.35;2.80;;;;;;;12.09;72.29;98445.28;1724578;82;21014;-71
2022/10/04 06:05:42;;;;;;;2.67;2.47;;;;;;;12.12;72.26;98448.34;1724344;81;21132;-69
2022/10/04 06:08:29;;;;;;;3.58;3.27;;;;;;;12.19;72.27;98433.19;1720362;83;22053;-70
2022/10/04 06:11:51;;;;;;;2.80;2.60;;;;;;;12.27;72.09;98447.66;1722841;81;20942;-69
2022/10/04 06:14:46;;;;;;;3.42;3.12;;;;;;;12.35;72.11;98450.11;1731764;81;20974;-70
2022/10/04 06:17:28;;;;;;;2.85;2.65;;;;;;;12.49;72.02;98460.77;1731404;81;21093;-72
2022/10/04 06:20:44;;;;;;;3.50;3.10;;;;;;;12.59;71.85;98477.17;1763302;81;20977;-72
2022/10/04 06:23:15;;;;;;;2.92;2.62;;;;;;;12.71;71.60;98484.34;1749163;81;21291;-69
2022/10/04 06:25:48;;;;;;;4.17;3.05;;;;;;;12.85;71.29;98476.59;1735519;81;20926;-68
2022/10/04 06:28:22;;;;;;;3.92;3.40;;;;;;;12.94;70.93;98495.38;1763291;81;21508;-70
2022/10/04 06:31:13;;;;;;;3.83;2.87;;;;;;;13.01;70.61;98494.02;1722958;81;22407;-69
2022/10/04 06:34:22;;;;;;;3.33;2.98;;;;;;;13.05;70.42;98493.92;1730686;81;21068;-70
2022/10/04 06:37:09;;;;;;;3.35;2.65;;;;;;;13.11;70.18;98490.96;1734673;81;21160;-70
2022/10/04 06:40:19;;;;;;;5.12;2.70;;;;;;;13.15;69.84;98492.99;1722447;83;20954;-72
2022/10/04 06:43:17;;;;;;;3.87;2.87;;;;;;;13.20;69.50;98504.37;1705442;82;20958;-69
2022/10/04 06:46:16;;;;;;;2.92;2.72;;;;;;;13.27;69.13;98510.53;1727104;82;21033;-72
2022/10/04 06:49:15;;;;;;;2.83;2.62;;;;;;;13.33;68.60;98506.48;1721458;81;21029;-69
2022/10/04 06:52:03;;;;;;;5.00;2.55;;;;;;;13.42;68.32;98514.59;1729354;82;21102;-69
2022/10/04 06:54:58;;;;;;;3.08;2.55;;;;;;;13.47;67.80;98508.09;1707160;81;21078;-68
2022/10/04 06:57:44;;;;;;;3.25;2.47;;;;;;;13.50;67.43;98510.31;1697713;82;21009;-64
2022/10/04 07:00:20;;;;;;;3.47;2.50;;;;;;;13.55;67.33;98516.38;1731154;82;20915;-77
2022/10/04 07:02:59;;;;;;;;;;;;;;;13.59;67.02;98518.92;1725123;82;20989;-80
2022/10/04 07:05:40;;;;;;;2.65;2.45;;;;;;;13.58;66.68;98525.31;1723668;82;21155;-79
2022/10/04 07:08:31;;;;;;;2.60;2.40;;;;;;;13.55;66.32;98525.73;1728539;82;20942;-82
2022/10/04 07:11:05;;;;;;;2.60;2.35;;;;;;;13.47;66.16;98521.95;1721934;82;21041;-76
2022/10/04 07:13:57;;;;;;;2.70;2.50;;;;;;;13.42;65.98;98528.45;1721549;82;20914;-73
2022/10/04 07:16:54;;;;;;;2.40;2.20;;;;;;;13.35;66.02;98533.80;1722468;82;21053;-71
2022/10/04 07:19:41;;;;;;;5.97;2.60;;;;;;;13.35;66.38;98533.80;1723016;82;21884;-74
2022/10/04 07:22:21;;;;;;;2.15;2.02;;;;;;;13.47;66.45;98522.78;1723547;82;28172;-76
2022/10/04 07:24:58;;;;;;;2.70;2.33;;;;;;;13.68;66.37;98524.84;1716084;82;21075;-76
2022/10/04 07:27:47;;;;;;;2.27;2.08;;;;;;;13.94;66.21;98526.05;1722253;82;21599;-75
2022/10/04 07:30:18;;;;;;;5.45;2.47;;;;;;;14.01;65.37;98530.84;1722610;82;21061;-63
2022/10/04 07:32:49;;;;;;;3.67;2.92;;;;;;;14.03;65.25;98529.58;1723448;82;21321;-71
2022/10/04 07:35:41;;;;;;;3.20;3.00;;;;;;;14.05;64.96;98538.75;1728848;82;20950;-73
2022/10/04 07:38:16;;;;;;;2.52;2.33;;;;;;;14.06;64.77;98535.02;1703750;82;21009;-72
2022/10/04 07:40:54;;;;;;;5.12;3.02;;;;;;;14.01;64.61;98537.52;1722385;82;21022;-72
2022/10/04 07:43:28;;;;;;;3.02;2.83;;;;;;;13.91;64.79;98552.70;1721017;82;20973;-71
2022/10/04 07:46:12;;;;;;;3.15;2.85;;;;;;;13.86;65.02;98544.50;1725648;81;21723;-72
2022/10/04 07:48:42;;;;;;;3.87;2.52;;;;;;;13.81;65.29;98550.18;1703696;82;20993;-73
2022/10/04 07:51:39;;;;;;;3.10;2.72;;;;;;;13.72;65.20;98552.78;1727140;81;21531;-71
2022/10/04 07:54:27;;;;;;;2.50;2.30;;;;;;;13.65;65.42;98556.00;1745685;81;20954;-73
2022/10/04 07:57:04;;;;;;;3.45;2.22;;;;;;;13.60;65.39;98562.81;1727535;81;21060;-72
2022/10/04 08:00:13;;;;;;;4.90;2.67;;;;;;;13.56;65.43;98558.91;1745658;81;21714;-72
2022/10/04 08:03:05;;;;;;;2.80;2.52;;;;;;;13.53;65.68;98563.34;1727039;81;20902;-73
2022/10/04 08:05:41;;;;;;;4.53;2.92;;;;;;;13.55;65.89;98567.98;1709346;83;20895;-73
2022/10/04 08:08:28;;;;;;;3.10;2.80;;;;;;;13.59;66.02;98575.03;1721908;81;21009;-71
2022/10/04 08:11:37;;;;;;;3.17;2.80;;;;;;;13.60;66.00;98576.18;1721704;81;21018;-72
2022/10/04 08:14:27;;;;;;;2.92;2.45;;;;;;;13.64;65.99;98580.56;1721946;81;21558;-72
2022/10/04 08:17:02;;;;;;;4.35;2.77;;;;;;;13.66;65.92;98582.50;1721650;81;21042;-71
2022/10/04 08:19:50;;;;;;;4.97;2.50;;;;;;;13.63;65.65;98580.28;1721765;81;20918;-71
2022/10/04 08:22:32;;;;;;;3.90;2.60;;;;;;;13.66;66.04;98585.72;1721985;81;21559;-71
2022/10/04 08:25:10;;;;;;;3.87;2.80;;;;;;;13.72;66.11;98592.36;1721938;81;21034;-70
2022/10/04 08:31:07;;;;;;;4.17;2.83;;;;;;;13.80;66.06;98585.95;1722001;81;20926;-72
2022/10/04 08:34:24;;;;;;;2.83;2.52;;;;;;;13.81;65.94;98586.27;1722231;81;20985;-72
2022/10/04 08:37:29;;;;;;;3.08;2.65;;;;;;;13.81;65.90;98591.61;1722222;81;20981;-69
2022/10/04 08:40:32;;;;;;;3.20;2.52;;;;;;;13.78;65.82;98592.86;1704478;81;21030;-72
2022/10/04 08:43:28;;;;;;;3.40;2.58;;;;;;;13.77;65.58;98602.41;1635919;86;22252;-72
2022/10/04 08:46:41;;;;;;;2.98;2.67;;;;;;;13.77;65.62;98601.07;1655935;86;21672;-72
2022/10/04 08:49:51;;;;;;;3.77;2.40;;;;;;;13.81;65.72;98607.66;1694447;84;21088;-72
2022/10/04 08:52:41;;;;;;;3.30;2.60;;;;;;;13.85;65.72;98612.87;1731682;82;21005;-70
2022/10/04 08:55:42;;;;;;;2.80;2.50;;;;;;;13.84;65.83;98613.92;1748481;81;21526;-72
2022/10/04 08:58:14;;;;;;;2.40;2.20;;;;;;;13.81;66.27;98623.69;1748588;81;21248;-71
2022/10/04 09:01:11;;;;;;;3.30;2.25;;;;;;;13.75;66.68;98616.51;1748499;81;20993;-72
2022/10/04 09:04:07;;;;;;;2.87;2.45;;;;;;;13.69;66.83;98626.19;1748711;81;21140;-72
2022/10/04 09:06:59;;;;;;;4.22;2.65;;;;;;;13.65;67.34;98625.48;1715240;82;21110;-74
2022/10/04 09:09:57;;;;;;;6.28;2.75;;;;;;;13.59;67.88;98626.64;1730786;81;20982;-72
2022/10/04 09:12:35;;;;;;;2.90;2.10;;;;;;;13.57;68.35;98631.38;1748538;81;21080;-70
2022/10/04 09:15:40;;;;;;;6.75;3.58;;;;;;;13.67;68.76;98631.44;1717446;82;21483;-72
2022/10/04 09:18:33;;;;;;;4.97;2.75;;;;;;;13.82;68.60;98631.48;1748511;81;21484;-71
2022/10/04 09:21:09;;;;;;;5.87;2.77;;;;;;;13.94;68.16;98635.16;1747733;81;21473;-70
2022/10/04 09:24:10;;;;;;;;;;;;;;;14.10;68.19;98631.19;1751246;81;20983;-71
2022/10/04 09:26:51;;;;;;;2.50;2.27;;;;;;;14.25;67.78;98639.75;1748567;81;21161;-69
2022/10/04 09:29:48;;;;;;;2.67;2.47;;;;;;;14.44;67.47;98636.70;1748590;81;20895;-70
2022/10/04 09:32:58;;;;;;;3.92;2.55;;;;;;;14.63;66.82;98641.09;1748362;81;20980;-72
2022/10/04 09:36:10;;;;;;;6.12;2.60;;;;;;;14.83;65.98;98643.92;1748554;81;21186;-73
2022/10/04 09:39:03;;;;;;;3.25;2.33;;;;;;;15.04;65.64;98639.25;1748637;81;20926;-74
2022/10/04 09:41:54;;;;;;;4.30;2.40;;;;;;;15.22;64.63;98646.00;1748503;81;21268;-72
2022/10/04 09:45:04;;;;;;;3.33;2.15;;;;;;;15.29;63.98;98652.94;1748445;81;20958;-72
2022/10/04 09:47:44;;;;;;;2.08;1.98;;;;;;;15.33;63.33;98645.26;1748195;81;20899;-72
2022/10/04 09:50:41;;;;;;;2.60;2.05;;;;;;;15.34;62.85;98642.38;1748415;81;21544;-72
2022/10/04 09:53:45;;;;;;;4.33;2.15;;;;;;;15.35;62.29;98654.75;1746175;81;20978;-73
2022/10/04 09:56:34;;;;;;;4.83;2.50;;;;;;;15.32;62.21;98651.16;1748509;81;21888;-70
2022/10/04 09:59:25;;;;;;;1.70;1.60;;;;;;;15.29;62.12;98642.73;1748450;81;20966;-71
2022/10/04 10:02:12;;;;;;;3.77;1.90;;;;;;;15.26;62.24;98653.88;1748448;81;20902;-70
2022/10/04 10:05:03;;;;;;;5.03;2.27;;;;;;;15.24;62.15;98649.27;1748371;81;21001;-71
2022/10/04 10:07:53;;;;;;;5.80;2.67;;;;;;;15.16;62.06;98660.27;1748478;81;20883;-72
2022/10/04 10:13:48;;;;;;;3.52;2.65;;;;;;;14.97;62.00;98666.59;1748425;81;20887;-73
2022/10/04 10:17:01;;;;;;;5.75;3.20;;;;;;;14.79;62.21;98674.86;1748455;81;21064;-72
2022/10/04 10:19:48;;;;;;;3.47;2.60;;;;;;;14.63;62.48;98678.05;1729760;81;20895;-72
2022/10/04 10:22:55;;;;;;;2.50;2.25;;;;;;;14.48;63.03;98682.05;1748416;81;20978;-73
2022/10/04 10:25:46;;;;;;;3.22;2.75;;;;;;;14.40;63.40;98688.98;1748614;81;21205;-71
2022/10/04 10:28:47;;;;;;;2.50;2.15;;;;;;;14.38;63.89;98692.40;1748380;81;20966;-72
2022/10/04 10:31:25;;;;;;;5.15;2.98;;;;;;;14.39;64.24;98699.41;1748587;82;20981;-71
2022/10/04 10:34:37;;;;;;;2.98;2.67;;;;;;;14.44;64.54;98701.75;1721944;82;20962;-72
2022/10/04 10:37:35;;;;;;;2.58;2.37;;;;;;;14.49;64.75;98700.59;1721671;81;20902;-72
2022/10/04 10:40:33;;;;;;;3.17;2.20;;;;;;;14.54;64.54;98710.64;1721976;81;21791;-72
2022/10/04 10:43:14;;;;;;;2.77;2.22;;;;;;;14.61;64.69;98700.71;1721044;81;20910;-72
2022/10/04 10:46:03;;;;;;;4.00;2.42;;;;;;;14.69;64.72;98707.16;1720707;81;20985;-72
2022/10/04 10:48:42;;;;;;;2.25;2.02;;;;;;;14.75;64.81;98709.81;1715977;83;20955;-70
2022/10/04 10:51:29;;;;;;;4.45;2.50;;;;;;;14.76;64.45;98704.73;1716246;82;21465;-71
2022/10/04 10:54:51;;;;;;;4.47;2.10;;;;;;;14.78;64.75;98700.53;1716256;83;21153;-71
2022/10/04 10:57:40;;;;;;;3.80;2.62;;;;;;;14.79;64.74;98705.65;1697829;82;20998;-72
2022/10/04 11:00:26;;;;;;;2.83;2.50;;;;;;;14.80;64.54;98707.81;1716317;83;21488;-71
2022/10/04 11:03:16;;;;;;;2.57;2.20;;;;;;;14.78;64.17;98706.67;1716602;82;20914;-70
2022/10/04 11:06:09;;;;;;;3.42;2.30;;;;;;;14.79;64.28;98716.36;1668539;83;21776;-72
2022/10/04 11:09:03;;;;;;;4.50;2.62;;;;;;;14.78;64.17;98713.37;1716289;82;22236;-72
2022/10/04 11:12:09;;;;;;;3.33;2.37;;;;;;;14.76;63.89;98720.80;1711954;83;20967;-71
2022/10/04 11:14:51;;;;;;;8.45;3.30;;;;;;;14.74;63.84;98724.22;1716317;82;21027;-72
2022/10/04 11:17:50;;;;;;;3.70;2.70;;;;;;;14.73;64.25;98724.45;1715740;83;20922;-71
2022/10/04 11:20:58;;;;;;;2.50;2.30;;;;;;;14.73;64.52;98726.58;1727149;81;20950;-73
2022/10/04 11:23:47;;;;;;;8.68;2.72;;;;;;;14.76;64.71;98727.50;1719548;82;21909;-72
2022/10/04 11:26:46;;;;;;;4.10;2.70;;;;;;;14.78;64.69;98729.44;1719310;82;21538;-73
2022/10/04 11:29:40;;;;;;;3.10;2.65;;;;;;;14.77;64.84;98731.83;1719264;82;20954;-71
2022/10/04 11:32:31;;;;;;;2.95;2.30;;;;;;;14.78;64.89;98740.69;1719295;82;20989;-72
2022/10/04 11:35:35;;;;;;;5.15;2.70;;;;;;;14.73;64.86;98737.84;1698922;83;21057;-72
2022/10/04 11:38:13;;;;;;;4.42;2.70;;;;;;;14.67;64.99;98740.84;1719521;82;21196;-71
2022/10/04 11:41:06;;;;;;;3.20;2.58;;;;;;;14.60;65.62;98741.92;1719235;82;20927;-70
2022/10/04 11:44:00;;;;;;;4.17;2.87;;;;;;;14.54;66.09;98745.44;1719264;82;21017;-72
2022/10/04 11:46:35;;;;;;;2.25;2.05;;;;;;;14.47;66.74;98742.77;1710600;82;21016;-72
2022/10/04 11:49:16;;;;;;;2.85;2.25;;;;;;;14.40;67.05;98756.70;1719346;82;20935;-73
2022/10/04 11:52:30;;;;;;;3.80;2.00;;;;;;;14.34;67.36;98753.53;1696026;83;21342;-73
2022/10/04 11:55:33;;;;;;;4.17;2.72;;;;;;;14.29;67.44;98750.64;1719249;82;21005;-72
2022/10/04 11:58:33;;;;;;;4.58;2.55;;;;;;;14.22;67.80;98756.02;1719285;82;20902;-74
2022/10/04 12:01:19;;;;;;;2.30;2.10;;;;;;;14.28;67.98;98771.75;1719386;82;20975;-71
2022/10/04 12:04:19;;;;;;;3.33;2.37;;;;;;;14.28;67.34;98763.73;1719260;82;20946;-73
2022/10/04 12:07:27;;;;;;;2.20;2.00;;;;;;;14.34;67.17;98766.11;1719324;82;21232;-73
2022/10/04 12:10:21;;;;;;;5.83;2.05;;;;;;;14.42;67.12;98767.19;1719328;82;21036;-71
2022/10/04 12:12:59;;;;;;;2.72;1.87;;;;;;;14.49;66.76;98772.84;1717602;82;21500;-72
2022/10/04 12:16:02;;;;;;;2.65;1.67;;;;;;;14.54;66.11;98777.05;1719279;82;20962;-69
2022/10/04 12:18:46;;;;;;;1.70;1.60;;;;;;;14.58;65.58;98771.55;1719238;82;21496;-71
2022/10/04 12:21:37;;;;;;;2.62;1.62;;;;;;;14.64;64.86;98769.38;1719466;82;21140;-72
2022/10/04 12:24:56;;;;;;;3.22;1.80;;;;;;;14.71;64.83;98767.48;1719209;82;20981;-72
2022/10/04 12:27:42;;;;;;;2.47;1.52;;;;;;;14.80;64.55;98776.09;1719405;82;21087;-72
2022/10/04 12:30:29;;;;;;;4.33;1.90;;;;;;;14.90;64.02;98775.62;1717303;82;21014;-73
2022/10/04 12:33:07;;;;;;;2.02;1.80;;;;;;;14.99;63.71;98782.37;1708734;82;20926;-72
2022/10/04 12:36:07;;;;;;;1.90;1.67;;;;;;;15.09;63.44;98784.89;1717401;82;21167;-71
2022/10/04 12:38:54;;;;;;;2.55;1.70;;;;;;;15.17;63.34;98787.28;1719294;82;21478;-73
2022/10/04 12:41:42;;;;;;;2.72;2.05;;;;;;;15.23;62.76;98798.48;1719383;82;20939;-72
2022/10/04 12:44:34;;;;;;;2.17;1.98;;;;;;;15.29;62.88;98776.20;1719286;82;20915;-72
2022/10/04 12:47:29;;;;;;;3.33;1.98;;;;;;;15.30;62.42;98787.74;1723190;81;20910;-71
2022/10/04 12:50:17;;;;;;;2.80;1.85;;;;;;;15.26;62.15;98795.38;1725672;81;21172;-70
2022/10/04 12:53:16;;;;;;;5.72;2.15;;;;;;;15.24;62.15;98789.94;1710041;81;21053;-72
2022/10/04 12:55:58;;;;;;;6.25;1.80;;;;;;;15.23;62.16;98799.00;1709278;84;21635;-72
2022/10/04 12:58:48;;;;;;;3.00;1.82;;;;;;;15.25;62.28;98799.63;1722044;81;21025;-71